createdAt,value
2018-06-15T00:03:58.902Z,10.53
2018-06-15T00:09:02.893Z,10.93
2018-06-15T00:14:06.665Z,11.50
2018-06-15T00:19:10.449Z,10.33
2018-06-15T00:24:14.217Z,10.40
2018-06-15T00:29:18.036Z,10.93
2018-06-15T00:34:22.051Z,11.97
2018-06-15T00:39:26.053Z,12.23
2018-06-15T00:44:29.905Z,10.17
2018-06-15T00:49:33.909Z,10.70
2018-06-15T00:54:37.680Z,10.00
2018-06-15T00:59:41.897Z,10.07
2018-06-15T01:04:45.710Z,10.50
2018-06-15T01:09:49.709Z,11.43
2018-06-15T01:14:53.481Z,13.33
2018-06-15T01:19:57.941Z,10.80
2018-06-15T01:25:01.746Z,11.87
2018-06-15T01:30:06.301Z,12.60
2018-06-15T01:35:10.073Z,13.63
2018-06-15T01:40:13.852Z,13.93
2018-06-15T01:45:17.844Z,15.00
2018-06-15T01:50:21.902Z,14.00
2018-06-15T01:55:25.925Z,13.70
2018-06-15T02:00:29.717Z,13.20
2018-06-15T02:05:33.747Z,13.50
2018-06-15T02:10:37.797Z,12.80
2018-06-15T02:15:41.661Z,13.13
2018-06-15T02:20:45.948Z,12.87
2018-06-15T02:25:50.010Z,14.10
2018-06-15T02:30:53.842Z,12.97
2018-06-15T02:35:57.723Z,13.67
2018-06-15T02:41:01.522Z,12.60
2018-06-15T02:46:05.368Z,13.13
2018-06-15T02:51:09.166Z,12.40
2018-06-15T02:56:12.970Z,12.37
2018-06-15T03:01:16.999Z,13.30
2018-06-15T03:06:20.818Z,12.77
2018-06-15T03:11:24.597Z,13.83
2018-06-15T03:16:28.404Z,13.33
2018-06-15T03:21:32.186Z,13.37
2018-06-15T03:26:36.249Z,13.10
2018-06-15T03:31:40.038Z,12.73
2018-06-15T03:36:44.068Z,12.83
2018-06-15T03:41:48.134Z,13.00
2018-06-15T03:46:51.943Z,13.28
2018-06-15T03:51:55.745Z,13.80
2018-06-15T03:56:59.545Z,13.60
2018-06-15T04:02:03.865Z,14.37
2018-06-15T04:07:07.662Z,13.70
2018-06-15T04:17:21.649Z,13.70
2018-06-15T04:22:25.465Z,13.80
2018-06-15T04:27:29.270Z,13.30
2018-06-15T04:32:33.070Z,14.20
2018-06-15T04:37:36.871Z,13.80
2018-06-15T04:42:46.985Z,13.20
2018-06-15T04:47:51.010Z,11.93
2018-06-15T04:52:54.865Z,13.27
2018-06-15T04:57:58.662Z,11.70
2018-06-15T05:03:02.714Z,11.73
2018-06-15T05:08:06.761Z,12.63
2018-06-15T05:13:10.888Z,12.70
2018-06-15T05:18:14.680Z,14.20
2018-06-15T05:23:18.474Z,12.93
2018-06-15T05:28:22.277Z,12.20
2018-06-15T05:33:26.674Z,12.37
2018-06-15T05:38:30.739Z,12.43
2018-06-15T05:43:34.542Z,11.77
2018-06-15T05:48:38.718Z,11.40
2018-06-15T05:53:42.526Z,10.80
2018-06-15T05:58:46.327Z,10.87
2018-06-15T06:03:50.211Z,9.67
2018-06-15T06:08:53.955Z,9.13
2018-06-15T06:13:57.793Z,10.47
2018-06-15T06:19:02.227Z,9.23
2018-06-15T06:24:06.042Z,9.00
2018-06-15T06:29:09.836Z,9.50
2018-06-15T06:34:13.938Z,9.77
2018-06-15T06:39:18.001Z,9.03
2018-06-15T06:44:21.832Z,9.50
2018-06-15T06:49:25.633Z,9.03
2018-06-15T06:54:29.498Z,8.70
2018-06-15T06:59:33.281Z,9.20
2018-06-15T07:04:37.352Z,7.90
2018-06-15T07:09:41.362Z,9.33
2018-06-15T07:14:45.194Z,9.83
2018-06-15T07:19:49.234Z,9.23
2018-06-15T07:24:53.262Z,10.60
2018-06-15T07:29:57.297Z,9.97
2018-06-15T07:35:01.114Z,10.17
2018-06-15T07:40:04.913Z,10.37
2018-06-15T07:45:08.947Z,10.75
2018-06-15T07:50:12.769Z,10.80
2018-06-15T07:55:16.579Z,10.63
2018-06-15T08:00:20.379Z,10.77
2018-06-15T08:05:25.038Z,11.90
2018-06-15T08:10:29.074Z,11.53
2018-06-15T08:15:32.861Z,10.40
2018-06-15T08:20:36.646Z,10.20
2018-06-15T08:25:40.433Z,9.47
2018-06-15T08:30:44.230Z,9.20
2018-06-15T08:35:48.260Z,9.23
2018-06-15T08:40:52.295Z,9.93
2018-06-15T08:45:56.330Z,8.83
2018-06-15T08:51:00.134Z,8.85
2018-06-15T08:56:03.983Z,7.77
2018-06-15T09:01:07.798Z,9.30
2018-06-15T09:06:11.686Z,10.53
2018-06-15T09:11:15.574Z,9.10
2018-06-15T09:16:19.417Z,9.77
2018-06-15T09:21:23.479Z,8.67
2018-06-15T09:26:27.538Z,8.47
2018-06-15T09:31:31.386Z,9.30
2018-06-15T09:36:35.430Z,7.53
2018-06-15T09:41:39.529Z,7.43
2018-06-15T09:46:43.480Z,8.73
2018-06-15T09:51:47.551Z,7.70
2018-06-15T09:56:51.382Z,7.30
2018-06-15T10:01:55.204Z,8.17
2018-06-15T10:06:59.273Z,9.37
2018-06-15T10:12:03.210Z,10.33
2018-06-15T10:17:07.181Z,8.63
2018-06-15T10:22:11.234Z,7.93
2018-06-15T10:27:15.346Z,7.33
2018-06-15T10:32:19.321Z,7.20
2018-06-15T10:37:23.134Z,7.80
2018-06-15T10:42:26.925Z,7.27
2018-06-15T10:47:30.762Z,7.78
2018-06-15T10:52:34.825Z,6.93
2018-06-15T10:57:38.617Z,7.27
2018-06-15T11:02:42.449Z,7.03
2018-06-15T11:07:46.346Z,6.13
2018-06-15T11:12:50.399Z,6.57
2018-06-15T11:17:54.209Z,6.33
2018-06-15T11:22:58.003Z,5.90
2018-06-15T11:28:01.835Z,5.40
2018-06-15T11:33:05.863Z,5.13
2018-06-15T11:38:09.685Z,5.07
2018-06-15T11:43:13.508Z,5.20
2018-06-15T11:48:17.293Z,5.20
2018-06-15T11:53:21.128Z,4.80
2018-06-15T11:58:25.230Z,5.53
2018-06-15T12:03:29.055Z,5.05
2018-06-15T12:08:33.118Z,4.73
2018-06-15T12:13:37.892Z,5.23
2018-06-15T12:18:41.696Z,6.90
2018-06-15T12:23:45.674Z,4.53
2018-06-15T12:28:49.640Z,4.20
2018-06-15T12:33:53.723Z,3.30
2018-06-15T12:38:57.578Z,3.40
2018-06-15T12:44:01.393Z,3.17
2018-06-15T12:49:05.510Z,2.93
2018-06-15T12:54:09.390Z,3.30
2018-06-15T12:59:13.270Z,2.90
2018-06-15T13:04:17.468Z,3.00
2018-06-15T13:09:21.382Z,3.27
2018-06-15T13:14:25.292Z,3.10
2018-06-15T13:19:29.427Z,3.53
2018-06-15T13:24:34.974Z,4.30
2018-06-15T13:29:39.125Z,3.90
2018-06-15T13:34:43.015Z,3.37
2018-06-15T13:39:46.876Z,3.37
2018-06-15T13:44:50.765Z,3.83
2018-06-15T13:49:54.700Z,5.07
2018-06-15T13:54:59.326Z,3.90
2018-06-15T14:00:03.109Z,3.57
2018-06-15T14:05:07.530Z,3.03
2018-06-15T14:10:11.803Z,2.60
2018-06-15T14:15:15.910Z,3.00
2018-06-15T14:20:19.749Z,2.80
2018-06-15T14:25:23.784Z,2.40
2018-06-15T14:30:27.570Z,2.70
2018-06-15T14:35:31.356Z,2.30
2018-06-15T14:40:35.395Z,2.60
2018-06-15T14:45:39.389Z,2.40
2018-06-15T14:50:43.265Z,2.50
2018-06-15T14:55:47.617Z,2.20
2018-06-15T15:00:51.401Z,2.00
2018-06-15T15:05:55.281Z,2.43
2018-06-15T15:10:59.072Z,2.07
2018-06-15T15:16:02.900Z,1.87
2018-06-15T15:21:06.983Z,2.70
2018-06-15T15:26:11.105Z,1.73
2018-06-15T15:31:15.038Z,1.73
2018-06-15T15:36:19.196Z,1.97
2018-06-15T15:41:22.929Z,1.50
2018-06-15T15:46:26.997Z,1.60
2018-06-15T15:51:30.853Z,2.00
2018-06-15T15:56:34.729Z,2.07
2018-06-15T16:01:38.513Z,1.70
2018-06-15T16:06:42.313Z,1.90
2018-06-15T16:11:46.089Z,2.53
2018-06-15T16:16:50.161Z,1.60
2018-06-15T16:21:59.578Z,1.83
2018-06-15T16:27:03.594Z,2.40
2018-06-15T16:32:07.516Z,1.70
2018-06-15T16:37:11.552Z,1.63
2018-06-15T16:42:15.446Z,1.60
2018-06-15T16:47:19.253Z,2.83
2018-06-15T16:52:23.022Z,1.80
2018-06-15T16:57:26.834Z,1.70
2018-06-15T17:02:30.645Z,1.80
2018-06-15T17:07:34.510Z,1.70
2018-06-15T17:12:38.534Z,2.00
2018-06-15T17:17:42.681Z,2.30
2018-06-15T17:22:46.698Z,2.37
2018-06-15T17:27:50.477Z,6.23
2018-06-15T17:32:54.503Z,2.60
2018-06-15T17:37:58.432Z,2.03
2018-06-15T17:43:02.352Z,1.80
2018-06-15T17:48:06.151Z,2.20
2018-06-15T17:53:09.934Z,2.30
2018-06-15T17:58:13.737Z,2.20
2018-06-15T18:03:17.585Z,2.10
2018-06-15T18:08:21.362Z,2.10
2018-06-15T18:13:25.226Z,2.53
2018-06-15T18:18:29.355Z,2.37
2018-06-15T18:23:33.183Z,2.20
2018-06-15T18:28:37.010Z,2.10
2018-06-15T18:33:41.026Z,2.20
2018-06-15T18:38:44.826Z,2.53
2018-06-15T18:43:48.704Z,1.97
2018-06-15T18:48:52.536Z,2.30
2018-06-15T18:53:56.306Z,2.10
2018-06-15T18:59:00.130Z,2.15
2018-06-15T19:04:03.905Z,2.30
2018-06-15T19:09:10.444Z,2.30
2018-06-15T19:14:14.265Z,2.30
2018-06-15T19:19:18.048Z,2.80
2018-06-15T19:24:22.150Z,2.53
2018-06-15T19:29:25.924Z,2.50
2018-06-15T19:34:29.713Z,2.80
2018-06-15T19:39:33.497Z,2.90
2018-06-15T19:44:37.345Z,2.60
2018-06-15T19:49:41.138Z,2.67
2018-06-15T19:54:44.958Z,3.00
2018-06-15T19:59:48.982Z,3.00
2018-06-15T20:04:52.762Z,2.33
2018-06-15T20:09:56.557Z,2.30
2018-06-15T20:15:00.600Z,2.70
2018-06-15T20:20:04.677Z,2.70
2018-06-15T20:25:08.460Z,3.03
2018-06-15T20:30:12.486Z,3.30
2018-06-15T20:35:16.281Z,3.53
2018-06-15T20:40:20.310Z,2.80
2018-06-15T20:45:24.430Z,3.17
2018-06-15T20:50:28.205Z,3.27
2018-06-15T20:55:32.082Z,3.40
2018-06-15T21:00:35.867Z,3.47
2018-06-15T21:05:40.025Z,3.40
2018-06-15T21:10:43.802Z,3.10
2018-06-15T21:15:47.829Z,3.47
2018-06-15T21:20:51.671Z,3.70
2018-06-15T21:25:55.453Z,3.77
2018-06-15T21:30:59.244Z,3.85
2018-06-15T21:36:03.261Z,4.00
2018-06-15T21:41:07.326Z,4.63
2018-06-15T21:46:11.131Z,4.17
2018-06-15T21:51:14.933Z,4.57
2018-06-15T21:56:19.010Z,4.20
2018-06-15T22:01:26.602Z,4.37
2018-06-15T22:06:30.445Z,4.23
2018-06-15T22:11:34.271Z,4.33
2018-06-15T22:16:43.579Z,4.03
2018-06-15T22:21:47.517Z,5.90
2018-06-15T22:26:51.426Z,4.33
2018-06-15T22:31:55.215Z,4.40
2018-06-15T22:36:59.234Z,4.40
2018-06-15T22:42:03.509Z,4.47
2018-06-15T22:47:07.633Z,4.70
2018-06-15T22:52:11.713Z,5.00
2018-06-15T22:57:15.562Z,4.50
2018-06-15T23:02:19.604Z,4.43
2018-06-15T23:07:23.430Z,4.40
2018-06-15T23:12:27.327Z,4.60
2018-06-15T23:17:31.101Z,4.95
2018-06-15T23:22:35.110Z,4.73
2018-06-15T23:27:39.134Z,4.80
2018-06-15T23:32:43.150Z,7.07
2018-06-15T23:37:47.029Z,6.13
2018-06-15T23:42:50.849Z,5.93
2018-06-15T23:47:54.661Z,4.60
2018-06-15T23:52:58.450Z,4.97
2018-06-15T23:58:02.223Z,4.50
